createdAt,value
2022-10-12T00:02:18.527Z,16.13
2022-10-12T00:09:03.941Z,15.82
2022-10-12T00:15:52.257Z,15.89
2022-10-12T00:22:37.755Z,15.90
2022-10-12T00:29:23.134Z,15.90
2022-10-12T00:36:22.279Z,15.91
2022-10-12T00:43:07.657Z,15.87
2022-10-12T00:49:59.937Z,15.79
2022-10-12T00:56:50.604Z,15.72
2022-10-12T01:03:36.524Z,15.70
2022-10-12T01:10:22.502Z,15.65
2022-10-12T01:17:25.247Z,15.55
2022-10-12T01:24:42.516Z,15.51
2022-10-12T01:31:37.642Z,15.51
2022-10-12T01:38:46.302Z,15.48
2022-10-12T01:45:31.653Z,15.47
2022-10-12T01:52:31.820Z,15.40
2022-10-12T01:59:24.799Z,15.32
2022-10-12T02:06:14.388Z,15.31
2022-10-12T02:13:10.110Z,15.20
2022-10-12T02:20:00.812Z,15.08
2022-10-12T02:26:50.980Z,14.94
2022-10-12T02:33:45.456Z,14.87
2022-10-12T02:40:39.328Z,14.76
2022-10-12T03:01:17.018Z,14.51
2022-10-12T03:08:02.538Z,14.51
2022-10-12T03:14:47.888Z,14.56
2022-10-12T03:21:35.867Z,14.52
2022-10-12T03:28:21.489Z,13.91
2022-10-12T03:35:07.082Z,14.55
2022-10-12T03:41:55.046Z,14.52
2022-10-12T03:48:40.601Z,14.53
2022-10-12T03:55:26.250Z,14.55
2022-10-12T04:02:16.830Z,14.51
2022-10-12T04:09:02.708Z,14.43
2022-10-12T04:15:48.145Z,14.26
2022-10-12T04:22:36.440Z,14.15
2022-10-12T04:29:22.210Z,14.01
2022-10-12T04:36:08.171Z,14.01
2022-10-12T04:42:56.230Z,13.93
2022-10-12T04:49:41.630Z,13.97
2022-10-12T04:56:26.984Z,13.88
2022-10-12T05:03:14.943Z,13.96
2022-10-12T05:10:00.310Z,13.98
2022-10-12T05:16:49.571Z,13.95
2022-10-12T05:23:37.549Z,14.04
2022-10-12T05:30:22.909Z,14.03
2022-10-12T05:37:08.458Z,13.86
2022-10-12T05:43:56.476Z,13.94
2022-10-12T05:50:41.821Z,13.88
2022-10-12T05:57:27.260Z,13.85
2022-10-12T06:04:15.388Z,13.82
2022-10-12T06:11:00.923Z,13.81
2022-10-12T06:17:46.276Z,13.80
2022-10-12T06:24:34.282Z,13.86
2022-10-12T06:31:19.640Z,13.81
2022-10-12T06:38:05.704Z,13.81
2022-10-12T06:44:53.882Z,13.83
2022-10-12T06:51:39.413Z,13.87
2022-10-12T06:58:24.783Z,13.93
2022-10-12T07:05:13.569Z,13.91
2022-10-12T07:11:59.264Z,13.87
2022-10-12T07:18:44.713Z,13.74
2022-10-12T07:25:33.231Z,13.36
2022-10-12T07:32:18.816Z,12.99
2022-10-12T07:39:05.556Z,12.69
2022-10-12T07:45:53.613Z,12.60
2022-10-12T07:52:39.268Z,12.05
2022-10-12T07:59:25.038Z,12.76
2022-10-12T08:06:18.943Z,12.73
2022-10-12T08:13:04.370Z,12.87
2022-10-12T08:19:49.801Z,12.95
2022-10-12T08:26:37.807Z,13.09
2022-10-12T08:33:23.824Z,13.28
2022-10-12T08:40:12.356Z,13.49
2022-10-12T08:47:06.057Z,13.79
2022-10-12T08:53:57.386Z,14.09
2022-10-12T09:00:42.813Z,14.34
2022-10-12T09:07:34.884Z,14.12
2022-10-12T09:14:25.969Z,14.66
2022-10-12T09:21:16.832Z,15.13
2022-10-12T09:28:18.426Z,14.77
2022-10-12T09:35:04.187Z,15.53
2022-10-12T09:41:51.620Z,15.93
2022-10-12T09:48:40.540Z,15.85
2022-10-12T09:55:30.746Z,16.47
2022-10-12T10:02:20.748Z,16.73
2022-10-12T10:09:16.084Z,16.97
2022-10-12T10:16:08.523Z,17.12
2022-10-12T10:22:53.901Z,17.12
2022-10-12T10:29:45.445Z,17.31
2022-10-12T10:36:31.609Z,17.41
2022-10-12T10:43:27.537Z,17.50
2022-10-12T10:50:29.664Z,17.70
2022-10-12T10:57:21.213Z,17.83
2022-10-12T11:04:11.429Z,17.97
2022-10-12T11:11:05.095Z,18.11
2022-10-12T11:17:55.235Z,18.25
2022-10-12T11:24:48.375Z,18.43
2022-10-12T11:31:43.001Z,18.57
2022-10-12T11:38:34.869Z,18.74
2022-10-12T11:45:27.635Z,18.85
2022-10-12T11:52:16.110Z,19.01
2022-10-12T11:59:08.156Z,19.20
2022-10-12T12:05:53.516Z,19.37
2022-10-12T12:13:22.713Z,19.47
2022-10-12T12:20:58.754Z,19.47
2022-10-12T12:27:50.424Z,19.89
2022-10-12T12:34:36.301Z,20.04
2022-10-12T12:41:23.935Z,20.17
2022-10-12T12:48:14.413Z,20.25
2022-10-12T12:55:46.142Z,20.40
2022-10-12T13:03:21.398Z,20.57
2022-10-12T13:10:42.294Z,20.64
2022-10-12T13:17:53.684Z,20.74
2022-10-12T13:24:50.232Z,20.82
2022-10-12T13:31:41.342Z,20.87
2022-10-12T13:38:29.763Z,20.95
2022-10-12T13:45:20.207Z,21.06
2022-10-12T13:52:31.891Z,21.20
2022-10-12T13:59:23.272Z,21.32
2022-10-12T14:06:09.797Z,21.43
2022-10-12T14:12:59.558Z,21.53
2022-10-12T14:19:51.470Z,21.30
2022-10-12T14:26:42.612Z,21.66
2022-10-12T14:33:31.678Z,21.73
2022-10-12T14:40:35.932Z,21.66
2022-10-12T14:47:25.627Z,21.63
2022-10-12T14:54:15.714Z,21.72
2022-10-12T15:01:01.194Z,21.73
2022-10-12T15:07:47.616Z,21.72
2022-10-12T15:14:35.654Z,21.88
2022-10-12T15:21:22.054Z,21.98
2022-10-12T15:28:08.867Z,22.14
2022-10-12T15:34:56.808Z,22.21
2022-10-12T15:41:42.436Z,22.26
2022-10-12T15:48:28.680Z,22.30
2022-10-12T15:55:20.428Z,22.48
2022-10-12T16:02:13.037Z,22.29
2022-10-12T16:08:58.452Z,21.72
2022-10-12T16:15:47.287Z,21.96
2022-10-12T16:22:32.872Z,22.24
2022-10-12T16:29:18.269Z,22.14
2022-10-12T16:36:13.520Z,22.13
2022-10-12T16:42:59.131Z,22.07
2022-10-12T16:49:44.890Z,21.40
2022-10-12T16:56:37.087Z,21.94
2022-10-12T17:03:25.046Z,21.85
2022-10-12T17:10:11.902Z,21.81
2022-10-12T17:17:00.173Z,21.72
2022-10-12T17:23:46.257Z,21.68
2022-10-12T17:30:31.707Z,21.62
2022-10-12T17:37:21.202Z,21.55
2022-10-12T17:44:06.742Z,21.53
2022-10-12T17:50:52.694Z,21.50
2022-10-12T17:57:40.804Z,21.38
2022-10-12T18:04:26.220Z,21.31
2022-10-12T18:11:11.925Z,20.95
2022-10-12T18:17:59.866Z,21.12
2022-10-12T18:24:45.329Z,21.02
2022-10-12T18:31:32.245Z,20.91
2022-10-12T18:38:20.544Z,20.72
2022-10-12T18:45:06.522Z,20.62
2022-10-12T18:51:53.033Z,20.54
2022-10-12T18:58:42.024Z,20.41
2022-10-12T19:05:27.769Z,20.34
2022-10-12T19:12:16.787Z,20.21
2022-10-12T19:19:07.527Z,20.17
2022-10-12T19:25:52.889Z,20.11
2022-10-12T19:32:38.269Z,20.03
2022-10-12T19:39:27.361Z,19.96
2022-10-12T19:46:15.735Z,19.91
2022-10-12T19:53:01.073Z,19.81
2022-10-12T19:59:49.033Z,19.75
2022-10-12T20:06:34.415Z,19.74
2022-10-12T20:13:19.769Z,19.69
2022-10-12T20:20:09.087Z,19.48
2022-10-12T20:26:54.465Z,19.56
2022-10-12T20:33:42.264Z,19.48
2022-10-12T20:40:30.920Z,19.42
2022-10-12T20:47:16.548Z,19.42
2022-10-12T20:54:03.062Z,18.88
2022-10-12T21:00:51.109Z,19.61
2022-10-12T21:07:37.577Z,19.32
2022-10-12T21:14:26.322Z,19.23
2022-10-12T21:21:17.641Z,18.76
2022-10-12T21:28:02.979Z,19.11
2022-10-12T21:34:48.468Z,19.03
2022-10-12T21:41:36.400Z,18.98
2022-10-12T21:48:21.771Z,18.92
2022-10-12T21:55:08.283Z,18.86
2022-10-12T22:01:56.037Z,19.03
2022-10-12T22:08:41.458Z,18.72
2022-10-12T22:15:31.715Z,18.69
2022-10-12T22:22:26.161Z,18.56
2022-10-12T22:29:12.064Z,18.56
2022-10-12T22:35:58.385Z,18.45
2022-10-12T22:42:46.325Z,18.38
2022-10-12T22:49:31.934Z,18.35
2022-10-12T22:56:20.010Z,18.33
2022-10-12T23:03:09.201Z,18.26
2022-10-12T23:09:54.584Z,18.28
2022-10-12T23:16:40.511Z,18.25
2022-10-12T23:23:28.473Z,18.17
2022-10-12T23:30:14.657Z,18.11
2022-10-12T23:37:00.118Z,18.13
2022-10-12T23:43:48.865Z,18.06
2022-10-12T23:50:34.273Z,18.03
2022-10-12T23:57:45.254Z,17.98
